Alicia, Arkansas
Current Conditions -  °F | °C
As of 6:58 AM on Friday 24 Oct 2014 (Local Time) from KM19 Reporting Station
Haze Haze  
Wind Chill: 45°   Ceiling: Unl
Heat Index: 45°   Visibility: 1.5mi
Dew Point: 45°   Wind: 3mph
Humidity: 100%   Direction: 160°SSE
Pressure: 30.16"   Gusts: NA
Location:  35.89°N, 91.08°W
Report Text: KM19 241158Z AUTO 16003KT 1 1/2SM BR CLR 07/07 A3016 RMK AO2
Loading
Personal Weather Stations






























Interactive Weather Map New forecast layout! Learn more

10-Day Weather Forecast

Advertisements
Track Severe Weather on mobile